Terminal Aerodrome Forecast
Issued by NWS Green Bay, WI

Home | Current Version | Previous Version | Graphics & Text | Print | Product List | Glossary On
Versions: 1 2 3 4 5 6 7 8 9 10 11 12 13 14 15 16 17 18 19 20 21 22 23 24 25 26 27 28
000
FTUS43 KGRB 131100
TAFGRB
TAF
KGRB 131120Z 1312/1412 31005KT P6SM BKN035
      TEMPO 1312/1314 SCT035
     FM131400 32007KT P6SM SKC
     FM131800 29006KT P6SM SCT040
     FM140000 19004KT P6SM SCT250
     FM140900 21003KT P6SM BKN250=

USA.gov is the U.S. government's official web portal to all federal, state and local government web resources and services.